Time;durP1;ratioP1;P1;durP2;ratioP2;P2;SDS_P1;SDS_P2;PMS_P1;PMS_P2;Temp;Humidity;BMP_temperature;BMP_pressure;BME280_temperature;BME280_humidity;BME280_pressure;Samples;Min_cycle;Max_cycle;Signal;HPM_P1;HPM_P2
2023/09/06 00:00:43;;;;;;;7.57;3.30;;;;;;;;;;7370864;19;20021;-63
2023/09/06 00:03:10;;;;;;;6.47;3.10;;;;;;;;;;7371194;19;20002;-65
2023/09/06 00:05:41;;;;;;;7.20;3.00;;;;;;;;;;7387882;19;20013;-65
2023/09/06 00:08:08;;;;;;;6.38;3.20;;;;;;;;;;7370481;19;20511;-65
2023/09/06 00:10:33;;;;;;;6.50;2.90;;;;;;;;;;7371806;19;20025;-65
2023/09/06 00:12:58;;;;;;;5.18;2.95;;;;;;;;;;7375304;19;20003;-64
2023/09/06 00:15:24;;;;;;;7.03;3.05;;;;;;;;;;7378401;19;20016;-64
2023/09/06 00:17:49;;;;;;;7.03;2.90;;;;;;;;;;7400982;19;20003;-65
2023/09/06 00:20:20;;;;;;;5.97;3.03;;;;;;;;;;7374687;19;20017;-65
2023/09/06 00:23:00;;;;;;;5.53;3.20;;;;;;;;;;7369754;19;20022;-65
2023/09/06 00:25:26;;;;;;;6.68;2.97;;;;;;;;;;7368202;19;20381;-65
2023/09/06 00:27:53;;;;;;;9.50;3.03;;;;;;;;;;7373134;19;20046;-65
2023/09/06 00:30:19;;;;;;;5.55;2.80;;;;;;;;;;7370670;19;20007;-65
2023/09/06 00:32:45;;;;;;;5.47;2.80;;;;;;;;;;7390528;19;20003;-65
2023/09/06 00:35:11;;;;;;;4.70;2.75;;;;;;;;;;7365268;19;20450;-65
2023/09/06 00:37:42;;;;;;;5.63;3.03;;;;;;;;;;7368383;19;20027;-65
2023/09/06 00:40:28;;;;;;;5.95;3.08;;;;;;;;;;7367993;19;20013;-65
2023/09/06 00:42:59;;;;;;;5.10;2.92;;;;;;;;;;7367769;19;20552;-65
2023/09/06 00:45:26;;;;;;;;;;;;;;;;;;7366024;19;20095;-65
2023/09/06 00:47:53;;;;;;;7.70;2.80;;;;;;;;;;7391502;19;19949;-65
2023/09/06 00:50:20;;;;;;;7.35;3.10;;;;;;;;;;7368613;19;20002;-65
2023/09/06 00:52:46;;;;;;;7.13;2.90;;;;;;;;;;7367814;19;20014;-65
2023/09/06 00:55:12;;;;;;;6.05;2.90;;;;;;;;;;7366822;19;20082;-65
2023/09/06 00:57:38;;;;;;;6.50;3.17;;;;;;;;;;7368617;19;20027;-65
2023/09/06 01:00:05;;;;;;;5.43;3.00;;;;;;;;;;7390630;19;20135;-65
2023/09/06 01:02:31;;;;;;;7.25;3.20;;;;;;;;;;7369232;19;20472;-65
2023/09/06 01:04:56;;;;;;;7.90;3.33;;;;;;;;;;7365957;19;20013;-63
2023/09/06 01:07:26;;;;;;;6.93;2.97;;;;;;;;;;7368887;19;20010;-65
2023/09/06 01:09:51;;;;;;;9.07;3.20;;;;;;;;;;7368273;19;20431;-65
2023/09/06 01:12:17;;;;;;;4.65;2.92;;;;;;;;;;7368324;19;20469;-64
2023/09/06 01:14:42;;;;;;;6.05;3.20;;;;;;;;;;7390741;19;20010;-65
2023/09/06 01:17:09;;;;;;;6.03;3.20;;;;;;;;;;7368431;19;20540;-63
2023/09/06 01:19:39;;;;;;;6.25;3.25;;;;;;;;;;7368701;19;20010;-64
2023/09/06 01:22:11;;;;;;;5.63;2.75;;;;;;;;;;7367520;19;20031;-64
2023/09/06 01:24:37;;;;;;;4.88;2.83;;;;;;;;;;7367179;19;20043;-64
2023/09/06 01:27:04;;;;;;;5.55;3.10;;;;;;;;;;7387291;19;20002;-63
2023/09/06 01:29:30;;;;;;;6.07;3.30;;;;;;;;;;7368001;19;20524;-64
2023/09/06 01:31:56;;;;;;;6.15;3.30;;;;;;;;;;7367753;19;20006;-63
2023/09/06 01:34:21;;;;;;;5.53;2.95;;;;;;;;;;7364993;19;20046;-63
2023/09/06 01:36:46;;;;;;;7.05;3.15;;;;;;;;;;7366476;19;20014;-63
2023/09/06 01:39:12;;;;;;;7.25;3.15;;;;;;;;;;7367376;19;20006;-64
2023/09/06 01:41:37;;;;;;;6.47;3.40;;;;;;;;;;7388494;19;20135;-65
2023/09/06 01:44:02;;;;;;;10.63;3.05;;;;;;;;;;7366314;19;20010;-65
2023/09/06 01:46:28;;;;;;;9.30;3.10;;;;;;;;;;7365790;19;20901;-64
2023/09/06 01:48:53;;;;;;;6.63;2.92;;;;;;;;;;7366810;19;20133;-64
2023/09/06 01:51:18;;;;;;;8.57;3.28;;;;;;;;;;7366666;19;20468;-64
2023/09/06 01:53:44;;;;;;;5.68;2.80;;;;;;;;;;7388647;19;20338;-63
2023/09/06 01:56:09;;;;;;;9.02;3.10;;;;;;;;;;7365454;19;20414;-65
2023/09/06 01:58:37;;;;;;;6.78;3.63;;;;;;;;;;7367333;19;20002;-64
2023/09/06 02:01:04;;;;;;;9.70;3.85;;;;;;;;;;7367760;19;20409;-64
2023/09/06 02:03:29;;;;;;;7.55;3.55;;;;;;;;;;7366962;19;20006;-64
2023/09/06 02:05:55;;;;;;;10.60;4.50;;;;;;;;;;7385839;19;20001;-64
2023/09/06 02:08:21;;;;;;;9.40;3.40;;;;;;;;;;7366459;19;20006;-64
2023/09/06 02:10:47;;;;;;;7.85;3.22;;;;;;;;;;7367094;19;20010;-63
2023/09/06 02:13:12;;;;;;;13.00;4.28;;;;;;;;;;7367608;19;20547;-64
2023/09/06 02:15:38;;;;;;;13.68;3.95;;;;;;;;;;7365182;19;20014;-64
2023/09/06 02:18:04;;;;;;;16.17;4.40;;;;;;;;;;7388175;19;20007;-62
2023/09/06 02:20:30;;;;;;;12.73;4.88;;;;;;;;;;7366020;19;20006;-66
2023/09/06 02:22:56;;;;;;;16.48;4.05;;;;;;;;;;7365694;19;20006;-65
2023/09/06 02:25:31;;;;;;;15.15;4.50;;;;;;;;;;7363084;19;20049;-64
2023/09/06 02:27:57;;;;;;;14.27;4.00;;;;;;;;;;7366228;19;20003;-63
2023/09/06 02:30:23;;;;;;;10.98;3.42;;;;;;;;;;7367092;19;20445;-65
2023/09/06 02:32:49;;;;;;;8.02;3.53;;;;;;;;;;7387615;19;20010;-65
2023/09/06 02:35:15;;;;;;;8.57;3.72;;;;;;;;;;7358785;19;20358;-64
2023/09/06 02:37:40;;;;;;;6.95;3.10;;;;;;;;;;7365678;19;20017;-65
2023/09/06 02:40:11;;;;;;;8.73;3.83;;;;;;;;;;7365344;19;20094;-64
2023/09/06 02:42:38;;;;;;;8.43;3.83;;;;;;;;;;7363792;19;20006;-65
2023/09/06 02:45:06;;;;;;;7.53;3.17;;;;;;;;;;7383808;19;20018;-65
2023/09/06 02:47:34;;;;;;;6.93;2.88;;;;;;;;;;7373389;19;20147;-65
2023/09/06 02:49:59;;;;;;;5.90;2.90;;;;;;;;;;7372460;19;19998;-65
2023/09/06 02:52:28;;;;;;;6.90;2.75;;;;;;;;;;7372320;19;20480;-65
2023/09/06 02:55:04;;;;;;;9.25;3.20;;;;;;;;;;7370248;19;20039;-65
2023/09/06 02:57:30;;;;;;;13.25;3.40;;;;;;;;;;7372719;19;20378;-65
2023/09/06 02:59:56;;;;;;;6.20;2.95;;;;;;;;;;7395308;19;20006;-65
2023/09/06 03:02:22;;;;;;;6.50;3.20;;;;;;;;;;7372995;19;20512;-65
2023/09/06 03:04:51;;;;;;;6.18;3.13;;;;;;;;;;7370013;19;20028;-65
2023/09/06 03:07:18;;;;;;;5.55;3.03;;;;;;;;;;7372343;19;20350;-65
2023/09/06 03:09:44;;;;;;;4.63;2.72;;;;;;;;;;7374080;19;20023;-65
2023/09/06 03:12:14;;;;;;;6.60;2.80;;;;;;;;;;7374885;19;20010;-65
2023/09/06 03:14:44;;;;;;;5.07;3.03;;;;;;;;;;7394062;19;20013;-65
2023/09/06 03:17:13;;;;;;;7.50;3.00;;;;;;;;;;7372489;19;20014;-65
2023/09/06 03:19:40;;;;;;;6.40;3.00;;;;;;;;;;7373105;19;20259;-64
2023/09/06 03:22:09;;;;;;;4.45;2.70;;;;;;;;;;7374664;19;20034;-65
2023/09/06 03:24:35;;;;;;;5.25;3.22;;;;;;;;;;7374138;19;20078;-65
2023/09/06 03:27:07;;;;;;;7.03;3.22;;;;;;;;;;7393511;19;20329;-65
2023/09/06 03:29:33;;;;;;;6.18;2.90;;;;;;;;;;7375025;19;20002;-65
2023/09/06 03:31:59;;;;;;;6.15;3.00;;;;;;;;;;7372708;19;20005;-63
2023/09/06 03:34:24;;;;;;;5.43;3.13;;;;;;;;;;7371233;19;20006;-64
2023/09/06 03:36:55;;;;;;;4.65;2.83;;;;;;;;;;7370754;19;20054;-65
2023/09/06 03:39:21;;;;;;;7.00;3.20;;;;;;;;;;7372319;19;20065;-65
2023/09/06 03:41:46;;;;;;;5.40;3.05;;;;;;;;;;7391885;19;20015;-65
2023/09/06 03:44:12;;;;;;;5.15;3.00;;;;;;;;;;7370422;19;20432;-65
2023/09/06 03:46:39;;;;;;;7.50;3.00;;;;;;;;;;7368754;19;20432;-67
2023/09/06 03:49:06;;;;;;;6.03;2.80;;;;;;;;;;7373676;19;20065;-65
2023/09/06 03:51:32;;;;;;;5.65;3.00;;;;;;;;;;7371995;19;20010;-65
2023/09/06 03:53:59;;;;;;;5.22;3.10;;;;;;;;;;7392681;19;20034;-65
2023/09/06 03:56:25;;;;;;;6.32;3.15;;;;;;;;;;7369773;19;19998;-65
2023/09/06 03:58:53;;;;;;;5.30;3.40;;;;;;;;;;7365294;19;20430;-65
2023/09/06 04:01:19;;;;;;;5.75;3.28;;;;;;;;;;7368538;19;20014;-63
2023/09/06 04:03:46;;;;;;;6.45;2.97;;;;;;;;;;7366523;19;20083;-63
2023/09/06 04:06:11;;;;;;;5.63;2.92;;;;;;;;;;7366640;19;20007;-64
2023/09/06 04:08:38;;;;;;;8.73;3.80;;;;;;;;;;7391253;19;20378;-65
2023/09/06 04:11:03;;;;;;;5.28;3.10;;;;;;;;;;7368355;19;20011;-65
2023/09/06 04:13:29;;;;;;;5.65;3.13;;;;;;;;;;7367699;19;20070;-63
2023/09/06 04:15:54;;;;;;;6.28;3.38;;;;;;;;;;7368131;19;20911;-64
2023/09/06 04:18:20;;;;;;;5.78;3.42;;;;;;;;;;7370069;19;20014;-65
2023/09/06 04:20:46;;;;;;;7.60;3.85;;;;;;;;;;7391086;19;20007;-64
2023/09/06 04:23:13;;;;;;;5.47;3.53;;;;;;;;;;7368803;19;20480;-65
2023/09/06 04:25:42;;;;;;;6.15;3.25;;;;;;;;;;7366229;19;20011;-65
2023/09/06 04:28:08;;;;;;;8.35;3.40;;;;;;;;;;7369863;19;20007;-65
2023/09/06 04:30:38;;;;;;;7.72;3.60;;;;;;;;;;7368934;19;20010;-65
2023/09/06 04:33:05;;;;;;;7.53;3.20;;;;;;;;;;7388902;19;20070;-65
2023/09/06 04:35:39;;;;;;;10.02;3.60;;;;;;;;;;7363293;19;20010;-64
2023/09/06 04:38:05;;;;;;;8.15;3.50;;;;;;;;;;7364047;19;20010;-65
2023/09/06 04:40:30;;;;;;;6.85;3.75;;;;;;;;;;7364015;19;20030;-64
2023/09/06 04:42:56;;;;;;;8.43;3.50;;;;;;;;;;7364721;19;20086;-64
2023/09/06 04:45:21;;;;;;;6.78;3.40;;;;;;;;;;7362191;19;20014;-64
2023/09/06 04:47:47;;;;;;;6.32;3.33;;;;;;;;;;7387714;19;19998;-64
2023/09/06 04:50:13;;;;;;;6.57;3.75;;;;;;;;;;7366230;19;20453;-64
2023/09/06 04:52:47;;;;;;;6.00;3.17;;;;;;;;;;7368054;19;20365;-64
2023/09/06 04:55:13;;;;;;;8.20;3.50;;;;;;;;;;7368740;19;20023;-63
2023/09/06 04:57:40;;;;;;;7.18;4.15;;;;;;;;;;7369009;19;20006;-64
2023/09/06 05:00:17;;;;;;;7.50;3.30;;;;;;;;;;7381621;19;20003;-64
2023/09/06 05:02:44;;;;;;;7.05;3.38;;;;;;;;;;7391779;19;20020;-64
2023/09/06 05:05:09;;;;;;;7.15;3.53;;;;;;;;;;7366223;19;20127;-65
2023/09/06 05:07:35;;;;;;;5.80;3.38;;;;;;;;;;7368966;19;20014;-64
2023/09/06 05:10:03;;;;;;;7.85;3.25;;;;;;;;;;7367200;19;20031;-64
2023/09/06 05:12:29;;;;;;;5.35;3.15;;;;;;;;;;7369523;19;20809;-65
2023/09/06 05:14:55;;;;;;;6.57;3.30;;;;;;;;;;7388161;19;20006;-65
2023/09/06 05:17:20;;;;;;;6.88;2.90;;;;;;;;;;7368821;19;20444;-65
2023/09/06 05:19:50;;;;;;;5.45;3.10;;;;;;;;;;7357986;19;20328;-65
2023/09/06 05:22:16;;;;;;;4.97;2.67;;;;;;;;;;7365005;19;20002;-64
2023/09/06 05:24:41;;;;;;;5.63;2.70;;;;;;;;;;7366375;19;20061;-65
2023/09/06 05:27:06;;;;;;;9.23;3.03;;;;;;;;;;7366107;19;20342;-65
2023/09/06 05:29:32;;;;;;;6.20;3.28;;;;;;;;;;7389336;19;20495;-65
2023/09/06 05:31:58;;;;;;;6.40;3.00;;;;;;;;;;7368248;19;20031;-65
2023/09/06 05:34:23;;;;;;;6.63;2.88;;;;;;;;;;7365488;19;20006;-65
2023/09/06 05:36:49;;;;;;;6.13;2.80;;;;;;;;;;7368025;19;20010;-65
2023/09/06 05:39:14;;;;;;;5.85;2.97;;;;;;;;;;7367296;19;20043;-65
2023/09/06 05:41:39;;;;;;;6.28;3.00;;;;;;;;;;7391574;19;20710;-64
2023/09/06 05:44:05;;;;;;;5.72;3.03;;;;;;;;;;7372873;19;20006;-64
2023/09/06 05:46:30;;;;;;;4.65;2.67;;;;;;;;;;7374512;19;20007;-64
2023/09/06 05:48:55;;;;;;;6.03;2.60;;;;;;;;;;7376375;19;20011;-64
2023/09/06 05:51:21;;;;;;;5.03;2.67;;;;;;;;;;7367831;19;20652;-64
2023/09/06 05:53:46;;;;;;;6.78;2.88;;;;;;;;;;7389004;19;20032;-63
2023/09/06 05:56:12;;;;;;;7.50;2.85;;;;;;;;;;7364916;19;20074;-65
2023/09/06 05:58:38;;;;;;;6.70;2.90;;;;;;;;;;7366367;19;20440;-64
2023/09/06 06:01:04;;;;;;;4.80;2.80;;;;;;;;;;7366621;19;20014;-65
2023/09/06 06:03:32;;;;;;;7.80;2.72;;;;;;;;;;7365256;19;20006;-65
2023/09/06 06:05:57;;;;;;;5.78;3.00;;;;;;;;;;7387078;19;20003;-65
2023/09/06 06:08:22;;;;;;;10.07;2.95;;;;;;;;;;7366149;19;20014;-64
2023/09/06 06:10:48;;;;;;;5.07;3.00;;;;;;;;;;7365644;19;20003;-64
2023/09/06 06:13:14;;;;;;;5.65;3.20;;;;;;;;;;7366864;19;20018;-65
2023/09/06 06:15:39;;;;;;;4.40;2.53;;;;;;;;;;7363183;19;20007;-64
2023/09/06 06:18:05;;;;;;;5.93;3.05;;;;;;;;;;7388182;19;20007;-64
2023/09/06 06:20:31;;;;;;;5.38;2.60;;;;;;;;;;7371603;19;20041;-64
2023/09/06 06:22:58;;;;;;;5.03;2.78;;;;;;;;;;7380119;19;19998;-64
2023/09/06 06:25:23;;;;;;;5.13;3.10;;;;;;;;;;7377417;19;20039;-65
2023/09/06 06:27:51;;;;;;;6.22;2.90;;;;;;;;;;7380570;19;20385;-63
2023/09/06 06:30:18;;;;;;;8.80;3.03;;;;;;;;;;7380616;19;20070;-65
2023/09/06 06:32:44;;;;;;;5.05;3.00;;;;;;;;;;7402010;19;20130;-64
2023/09/06 06:35:11;;;;;;;5.60;2.72;;;;;;;;;;7375756;19;20003;-65
2023/09/06 06:37:38;;;;;;;5.40;2.78;;;;;;;;;;7379972;19;20009;-64
2023/09/06 06:40:05;;;;;;;7.30;3.10;;;;;;;;;;7380855;19;20628;-64
2023/09/06 06:42:34;;;;;;;5.05;2.78;;;;;;;;;;7381100;19;20007;-65
2023/09/06 06:44:59;;;;;;;6.18;3.13;;;;;;;;;;7399758;19;20006;-65
2023/09/06 06:47:25;;;;;;;5.32;2.75;;;;;;;;;;7379298;19;20005;-64
2023/09/06 06:49:51;;;;;;;5.63;2.90;;;;;;;;;;7377794;19;20563;-64
2023/09/06 06:52:16;;;;;;;6.10;3.35;;;;;;;;;;7379453;19;20016;-63
2023/09/06 06:54:42;;;;;;;8.38;2.80;;;;;;;;;;7379186;19;20003;-64
2023/09/06 06:57:07;;;;;;;5.85;3.05;;;;;;;;;;7378417;19;20092;-64
2023/09/06 06:59:34;;;;;;;5.50;3.10;;;;;;;;;;7401093;19;20107;-63
2023/09/06 07:01:59;;;;;;;8.85;2.92;;;;;;;;;;7379347;19;20002;-64
2023/09/06 07:04:24;;;;;;;8.95;3.10;;;;;;;;;;7377595;19;20017;-65
2023/09/06 07:06:49;;;;;;;7.18;3.28;;;;;;;;;;7377362;19;20085;-64
2023/09/06 07:09:15;;;;;;;8.45;3.03;;;;;;;;;;7381835;19;20159;-65
2023/09/06 07:11:40;;;;;;;7.18;3.17;;;;;;;;;;7400535;19;20031;-67
2023/09/06 07:14:05;;;;;;;6.75;3.63;;;;;;;;;;7378210;19;20077;-67
2023/09/06 07:16:33;;;;;;;6.80;3.90;;;;;;;;;;7379236;19;20007;-68
2023/09/06 07:18:59;;;;;;;5.85;3.00;;;;;;;;;;7378098;19;20002;-69
2023/09/06 07:21:25;;;;;;;11.35;3.40;;;;;;;;;;7379928;19;20016;-67
2023/09/06 07:23:50;;;;;;;6.38;3.17;;;;;;;;;;7400609;19;20378;-67
2023/09/06 07:26:16;;;;;;;6.72;3.63;;;;;;;;;;7377008;19;20018;-67
2023/09/06 07:28:45;;;;;;;7.05;3.10;;;;;;;;;;7378603;19;20617;-68
2023/09/06 07:31:11;;;;;;;6.05;3.45;;;;;;;;;;7377781;19;20425;-68
2023/09/06 07:33:37;;;;;;;4.85;3.10;;;;;;;;;;7367480;19;20489;-68
2023/09/06 07:36:04;;;;;;;6.95;3.45;;;;;;;;;;7391444;19;20018;-68
2023/09/06 07:38:29;;;;;;;6.78;3.35;;;;;;;;;;7370250;19;20010;-68
2023/09/06 07:41:01;;;;;;;5.43;3.00;;;;;;;;;;7371536;19;20003;-68
2023/09/06 07:43:28;;;;;;;8.75;3.15;;;;;;;;;;7370044;19;20518;-68
2023/09/06 07:45:57;;;;;;;7.03;3.30;;;;;;;;;;7370143;19;20014;-68
2023/09/06 07:48:28;;;;;;;9.07;3.50;;;;;;;;;;7370356;19;20023;-68
2023/09/06 07:50:54;;;;;;;5.57;3.00;;;;;;;;;;7393059;19;20472;-68
2023/09/06 07:53:20;;;;;;;5.80;3.13;;;;;;;;;;7370835;19;20082;-68
2023/09/06 07:55:47;;;;;;;6.40;3.40;;;;;;;;;;7367796;19;20006;-67
2023/09/06 07:58:13;;;;;;;7.28;3.03;;;;;;;;;;7371594;19;20030;-68
2023/09/06 08:00:39;;;;;;;8.90;3.55;;;;;;;;;;7370372;19;20023;-68
2023/09/06 08:03:05;;;;;;;7.88;3.95;;;;;;;;;;7392105;19;20659;-68
2023/09/06 08:05:35;;;;;;;6.60;2.83;;;;;;;;;;7367486;19;20014;-68
2023/09/06 08:08:00;;;;;;;7.60;3.28;;;;;;;;;;7367422;19;20770;-68
2023/09/06 08:10:26;;;;;;;8.30;3.78;;;;;;;;;;7368906;19;20003;-68
2023/09/06 08:12:51;;;;;;;7.85;3.30;;;;;;;;;;7370047;19;20532;-68
2023/09/06 08:15:17;;;;;;;7.45;3.45;;;;;;;;;;7366601;19;20015;-68
2023/09/06 08:17:47;;;;;;;8.48;3.50;;;;;;;;;;7391393;19;20074;-68
2023/09/06 08:20:14;;;;;;;7.38;3.03;;;;;;;;;;7368818;19;20014;-68
2023/09/06 08:22:40;;;;;;;6.05;3.25;;;;;;;;;;7368860;19;20057;-68
2023/09/06 08:25:06;;;;;;;6.85;3.00;;;;;;;;;;7366728;19;20010;-68
2023/09/06 08:27:31;;;;;;;8.27;3.22;;;;;;;;;;7368332;19;20007;-68
2023/09/06 08:29:58;;;;;;;5.63;3.00;;;;;;;;;;7390682;19;20434;-68
2023/09/06 08:32:23;;;;;;;7.18;2.78;;;;;;;;;;7367737;19;20133;-68
2023/09/06 08:34:49;;;;;;;7.35;3.42;;;;;;;;;;7365557;19;20091;-68
2023/09/06 08:37:14;;;;;;;5.75;3.10;;;;;;;;;;7368653;19;20644;-68
2023/09/06 08:39:39;;;;;;;7.50;3.20;;;;;;;;;;7365471;19;20023;-68
2023/09/06 08:42:06;;;;;;;7.68;3.38;;;;;;;;;;7384811;19;20013;-68
2023/09/06 08:44:32;;;;;;;5.82;3.03;;;;;;;;;;7376581;19;20006;-68
2023/09/06 08:47:03;;;;;;;6.60;2.90;;;;;;;;;;7364787;19;20007;-68
2023/09/06 08:49:28;;;;;;;7.75;3.63;;;;;;;;;;7367865;19;20010;-68
2023/09/06 08:51:55;;;;;;;8.60;3.35;;;;;;;;;;7364133;19;20485;-68
2023/09/06 08:54:21;;;;;;;5.35;3.17;;;;;;;;;;7367308;19;20018;-68
2023/09/06 08:56:47;;;;;;;8.43;3.20;;;;;;;;;;7386406;19;20003;-68
2023/09/06 08:59:13;;;;;;;6.20;3.35;;;;;;;;;;7367843;19;20021;-68
2023/09/06 09:01:38;;;;;;;5.15;2.97;;;;;;;;;;7367446;19;20022;-68
2023/09/06 09:04:04;;;;;;;5.20;3.03;;;;;;;;;;7367891;19;20006;-68
2023/09/06 09:06:29;;;;;;;7.97;3.20;;;;;;;;;;7366500;19;20014;-68
2023/09/06 09:08:55;;;;;;;5.85;2.95;;;;;;;;;;7389887;19;20488;-68
2023/09/06 09:11:20;;;;;;;10.27;3.45;;;;;;;;;;7367482;19;20056;-68
2023/09/06 09:13:46;;;;;;;6.88;3.00;;;;;;;;;;7367573;19;20011;-68
2023/09/06 09:16:14;;;;;;;7.22;2.90;;;;;;;;;;7365211;19;20010;-68
2023/09/06 09:18:41;;;;;;;8.63;3.60;;;;;;;;;;7367008;19;20006;-68
2023/09/06 09:21:09;;;;;;;5.85;3.05;;;;;;;;;;7366626;19;20016;-68
2023/09/06 09:23:42;;;;;;;5.93;3.10;;;;;;;;;;7388228;19;20038;-68
2023/09/06 09:26:08;;;;;;;6.85;3.22;;;;;;;;;;7364642;19;20007;-68
2023/09/06 09:28:34;;;;;;;6.88;3.30;;;;;;;;;;7366712;19;20364;-68
2023/09/06 09:31:00;;;;;;;6.00;3.22;;;;;;;;;;7367320;19;20010;-68
2023/09/06 09:33:27;;;;;;;6.60;3.30;;;;;;;;;;7365644;19;20043;-68
2023/09/06 09:35:53;;;;;;;5.20;2.88;;;;;;;;;;7387099;19;20031;-68
2023/09/06 09:38:18;;;;;;;7.78;3.45;;;;;;;;;;7365776;19;20014;-68
2023/09/06 09:40:43;;;;;;;5.55;3.53;;;;;;;;;;7366464;19;20469;-68
2023/09/06 09:43:09;;;;;;;6.95;3.00;;;;;;;;;;7363783;19;20014;-68
2023/09/06 09:45:43;;;;;;;7.05;2.97;;;;;;;;;;7360360;19;20568;-68
2023/09/06 09:48:09;;;;;;;5.18;3.10;;;;;;;;;;7365225;19;20018;-68
2023/09/06 09:50:36;;;;;;;8.88;3.25;;;;;;;;;;7387667;19;19998;-68
2023/09/06 09:53:09;;;;;;;6.10;3.38;;;;;;;;;;7364989;19;20481;-68
2023/09/06 09:55:41;;;;;;;8.18;3.25;;;;;;;;;;7360670;19;20003;-68
2023/09/06 09:58:09;;;;;;;8.55;3.25;;;;;;;;;;7365493;19;20010;-68
2023/09/06 10:00:39;;;;;;;10.30;3.55;;;;;;;;;;7365564;19;20006;-68
2023/09/06 10:03:05;;;;;;;7.05;3.20;;;;;;;;;;7385923;19;20006;-68
2023/09/06 10:05:31;;;;;;;5.30;2.75;;;;;;;;;;7362145;19;20031;-68
2023/09/06 10:07:57;;;;;;;5.60;3.05;;;;;;;;;;7364443;19;20017;-68
2023/09/06 10:10:24;;;;;;;4.53;3.10;;;;;;;;;;7365748;19;20018;-68
2023/09/06 10:12:51;;;;;;;6.45;3.00;;;;;;;;;;7366816;19;20027;-69
2023/09/06 10:15:20;;;;;;;4.93;3.05;;;;;;;;;;7362579;19;20014;-68
2023/09/06 10:17:47;;;;;;;4.43;2.78;;;;;;;;;;7387378;19;20010;-68
2023/09/06 10:20:14;;;;;;;5.30;3.05;;;;;;;;;;7364080;19;20014;-68
2023/09/06 10:22:42;;;;;;;4.60;2.92;;;;;;;;;;7364704;19;20435;-68
2023/09/06 10:25:10;;;;;;;4.75;2.75;;;;;;;;;;7360706;19;20011;-68
2023/09/06 10:27:35;;;;;;;8.13;3.22;;;;;;;;;;7365175;19;20018;-68
2023/09/06 10:30:06;;;;;;;6.32;3.67;;;;;;;;;;7385309;19;20005;-68
2023/09/06 10:32:41;;;;;;;5.93;3.08;;;;;;;;;;7365228;19;20006;-69
2023/09/06 10:35:20;;;;;;;7.25;2.70;;;;;;;;;;7361333;19;20010;-68
2023/09/06 10:38:14;;;;;;;4.47;2.95;;;;;;;;;;7363517;19;20045;-68
2023/09/06 10:40:51;;;;;;;5.50;3.05;;;;;;;;;;7365095;19;20103;-68
2023/09/06 10:43:26;;;;;;;7.03;2.97;;;;;;;;;;7364904;19;20095;-68
2023/09/06 10:46:07;;;;;;;5.47;3.10;;;;;;;;;;7363437;19;20014;-68
2023/09/06 10:48:32;;;;;;;4.85;3.20;;;;;;;;;;7365834;19;20464;-68
2023/09/06 10:51:08;;;;;;;5.28;3.20;;;;;;;;;;7387176;19;20005;-68
2023/09/06 10:53:34;;;;;;;5.97;3.47;;;;;;;;;;7364373;19;20006;-68
2023/09/06 10:56:02;;;;;;;9.00;2.92;;;;;;;;;;7363621;19;20380;-68
2023/09/06 10:58:29;;;;;;;5.63;2.90;;;;;;;;;;7365639;19;20042;-68
2023/09/06 11:01:16;;;;;;;5.82;2.95;;;;;;;;;;7365878;19;20014;-68
2023/09/06 11:03:52;;;;;;;6.50;3.33;;;;;;;;;;7362688;19;20014;-68
2023/09/06 11:06:19;;;;;;;7.88;2.97;;;;;;;;;;7364178;19;20468;-68
2023/09/06 11:08:46;;;;;;;5.00;3.15;;;;;;;;;;7393957;19;20111;-68
2023/09/06 11:11:13;;;;;;;6.15;2.80;;;;;;;;;;7372520;19;20007;-68
2023/09/06 11:13:42;;;;;;;7.85;3.30;;;;;;;;;;7371435;19;20010;-68
2023/09/06 11:16:12;;;;;;;5.68;3.00;;;;;;;;;;7372846;19;20165;-68
2023/09/06 11:18:43;;;;;;;5.57;3.20;;;;;;;;;;7372832;19;20002;-68
2023/09/06 11:21:09;;;;;;;4.72;3.20;;;;;;;;;;7373215;19;19995;-68
2023/09/06 11:23:47;;;;;;;5.35;3.15;;;;;;;;;;7393927;19;20022;-68
2023/09/06 11:26:13;;;;;;;6.55;3.00;;;;;;;;;;7370560;19;20006;-68
2023/09/06 11:28:42;;;;;;;6.22;3.17;;;;;;;;;;7371838;19;20449;-68
2023/09/06 11:31:29;;;;;;;5.57;3.28;;;;;;;;;;7372199;19;20030;-64
2023/09/06 11:33:56;;;;;;;5.22;2.95;;;;;;;;;;7370045;19;20011;-68
2023/09/06 11:36:27;;;;;;;5.55;3.20;;;;;;;;;;7369979;19;20010;-66
2023/09/06 11:38:53;;;;;;;6.03;2.92;;;;;;;;;;7392337;19;20013;-63
2023/09/06 11:41:20;;;;;;;5.25;3.08;;;;;;;;;;7372337;19;20026;-63
2023/09/06 11:43:48;;;;;;;6.78;3.50;;;;;;;;;;7373434;19;20007;-63
2023/09/06 11:46:17;;;;;;;5.93;3.15;;;;;;;;;;7365408;19;20128;-63
2023/09/06 11:48:43;;;;;;;5.80;3.03;;;;;;;;;;7371416;19;20006;-63
2023/09/06 11:51:10;;;;;;;6.07;3.08;;;;;;;;;;7371652;19;20541;-63
2023/09/06 11:53:40;;;;;;;4.22;2.97;;;;;;;;;;7389398;19;20014;-63
2023/09/06 11:56:07;;;;;;;5.30;3.03;;;;;;;;;;7368424;19;19994;-64
2023/09/06 11:58:48;;;;;;;5.13;3.10;;;;;;;;;;7370803;19;20018;-62
2023/09/06 12:01:20;;;;;;;5.43;3.20;;;;;;;;;;7368538;19;20466;-63
2023/09/06 12:03:47;;;;;;;6.32;3.15;;;;;;;;;;7367782;19;20077;-63
2023/09/06 12:06:13;;;;;;;5.38;3.22;;;;;;;;;;7367211;19;20002;-63
2023/09/06 12:08:38;;;;;;;5.32;3.05;;;;;;;;;;7390414;19;20500;-62
2023/09/06 12:11:11;;;;;;;4.88;3.00;;;;;;;;;;7369661;19;20406;-63
2023/09/06 12:13:38;;;;;;;5.80;3.10;;;;;;;;;;7370080;19;20022;-62
2023/09/06 12:16:05;;;;;;;4.97;2.88;;;;;;;;;;7367932;19;20003;-63
2023/09/06 12:18:31;;;;;;;4.70;2.92;;;;;;;;;;7368314;19;19998;-63
2023/09/06 12:20:57;;;;;;;5.97;3.10;;;;;;;;;;7390166;19;19995;-63
2023/09/06 12:23:26;;;;;;;5.10;3.22;;;;;;;;;;7369362;19;20010;-63
2023/09/06 12:25:51;;;;;;;4.28;2.60;;;;;;;;;;7367971;19;20338;-62
2023/09/06 12:28:16;;;;;;;5.13;3.00;;;;;;;;;;7369272;19;20027;-62
2023/09/06 12:30:42;;;;;;;4.93;2.75;;;;;;;;;;7369580;19;19998;-62
2023/09/06 12:33:07;;;;;;;5.97;3.00;;;;;;;;;;7369783;19;20031;-60
2023/09/06 12:35:38;;;;;;;5.53;2.60;;;;;;;;;;7387485;19;20002;-64
2023/09/06 12:38:06;;;;;;;4.25;2.60;;;;;;;;;;7370035;19;20228;-63
2023/09/06 12:40:31;;;;;;;4.93;2.70;;;;;;;;;;7366607;19;20006;-64
2023/09/06 12:42:57;;;;;;;5.03;2.78;;;;;;;;;;7362038;19;20027;-63
2023/09/06 12:45:30;;;;;;;4.57;2.50;;;;;;;;;;7366437;19;20475;-63
2023/09/06 12:47:57;;;;;;;4.65;2.90;;;;;;;;;;7391631;19;20010;-62
2023/09/06 12:50:23;;;;;;;6.97;3.00;;;;;;;;;;7368880;19;20013;-62
2023/09/06 12:52:49;;;;;;;7.95;3.10;;;;;;;;;;7369177;19;21269;-63
2023/09/06 12:55:15;;;;;;;4.53;2.63;;;;;;;;;;7367888;19;20010;-62
2023/09/06 12:57:41;;;;;;;7.03;2.90;;;;;;;;;;7369835;19;20011;-62
2023/09/06 13:00:07;;;;;;;5.60;3.00;;;;;;;;;;7372728;19;20018;-63
2023/09/06 13:02:33;;;;;;;6.03;3.15;;;;;;;;;;7390914;19;20014;-62
2023/09/06 13:04:59;;;;;;;4.50;2.80;;;;;;;;;;7365575;19;20018;-63
2023/09/06 13:07:24;;;;;;;4.68;2.90;;;;;;;;;;7366668;19;20014;-63
2023/09/06 13:09:50;;;;;;;4.10;2.75;;;;;;;;;;7369218;19;20452;-62
2023/09/06 13:12:15;;;;;;;3.95;2.50;;;;;;;;;;7366579;19;20022;-60
2023/09/06 13:14:41;;;;;;;5.00;3.00;;;;;;;;;;7389117;19;20002;-58
2023/09/06 13:17:06;;;;;;;5.38;2.90;;;;;;;;;;7367321;19;20006;-60
2023/09/06 13:19:31;;;;;;;4.45;2.55;;;;;;;;;;7367906;19;20118;-59
2023/09/06 13:21:57;;;;;;;6.22;3.00;;;;;;;;;;7369428;19;20087;-59
2023/09/06 13:24:22;;;;;;;4.45;2.80;;;;;;;;;;7366631;19;20010;-59
2023/09/06 13:26:49;;;;;;;4.47;3.15;;;;;;;;;;7387478;19;20006;-58
2023/09/06 13:29:15;;;;;;;5.53;2.92;;;;;;;;;;7366942;19;20017;-59
2023/09/06 13:31:40;;;;;;;5.72;2.70;;;;;;;;;;7365225;19;20010;-59
2023/09/06 13:34:05;;;;;;;5.22;2.72;;;;;;;;;;7366874;19;20417;-60
2023/09/06 13:36:35;;;;;;;4.07;2.55;;;;;;;;;;7364493;19;20742;-59
2023/09/06 13:39:03;;;;;;;5.40;2.97;;;;;;;;;;7388168;19;20026;-58
2023/09/06 13:41:29;;;;;;;4.97;2.58;;;;;;;;;;7365318;19;20009;-58
2023/09/06 13:43:54;;;;;;;5.57;2.92;;;;;;;;;;7366236;19;20010;-60
2023/09/06 13:46:19;;;;;;;4.78;3.00;;;;;;;;;;7363891;19;20002;-60
2023/09/06 13:48:45;;;;;;;6.95;2.80;;;;;;;;;;7366892;19;20014;-59
2023/09/06 13:51:10;;;;;;;4.77;2.70;;;;;;;;;;7366502;19;20010;-59
2023/09/06 13:53:35;;;;;;;7.88;2.80;;;;;;;;;;7388654;19;20327;-62
2023/09/06 13:56:01;;;;;;;4.53;2.92;;;;;;;;;;7364009;19;20090;-59
2023/09/06 13:58:26;;;;;;;5.07;2.80;;;;;;;;;;7366638;19;20036;-64
2023/09/06 14:00:55;;;;;;;5.72;2.63;;;;;;;;;;7366320;19;20512;-65
2023/09/06 14:03:21;;;;;;;3.92;2.53;;;;;;;;;;7366537;19;20006;-65
2023/09/06 14:05:47;;;;;;;4.43;2.67;;;;;;;;;;7385448;19;20002;-66
2023/09/06 14:08:12;;;;;;;4.53;2.90;;;;;;;;;;7369394;19;20464;-66
2023/09/06 14:10:37;;;;;;;4.70;3.00;;;;;;;;;;7374437;19;20010;-65
2023/09/06 14:13:03;;;;;;;5.60;2.92;;;;;;;;;;7373972;19;20014;-66
2023/09/06 14:15:28;;;;;;;4.90;2.95;;;;;;;;;;7373691;19;20090;-64
2023/09/06 14:17:53;;;;;;;4.32;2.67;;;;;;;;;;7389952;19;19998;-65
2023/09/06 14:20:19;;;;;;;4.70;2.58;;;;;;;;;;7366401;19;20010;-65
2023/09/06 14:22:44;;;;;;;4.45;2.80;;;;;;;;;;7365126;19;20006;-66
2023/09/06 14:25:09;;;;;;;4.45;2.88;;;;;;;;;;7364422;19;20002;-64
2023/09/06 14:27:35;;;;;;;5.50;2.40;;;;;;;;;;7363816;19;20006;-67
2023/09/06 14:30:00;;;;;;;4.97;2.55;;;;;;;;;;7386450;19;19995;-65
2023/09/06 14:32:26;;;;;;;5.07;2.60;;;;;;;;;;7366027;19;20010;-65
2023/09/06 14:34:51;;;;;;;3.70;2.33;;;;;;;;;;7363061;19;20263;-66
2023/09/06 14:37:16;;;;;;;5.28;2.70;;;;;;;;;;7364980;19;20007;-65
2023/09/06 14:39:42;;;;;;;4.20;2.75;;;;;;;;;;7366360;19;20577;-65
2023/09/06 14:42:07;;;;;;;4.75;2.63;;;;;;;;;;7367580;19;20473;-65